Gavdos, Greece
Current Conditions -  °F | °C
As of 6:20 AM on Thursday 23 Oct 2014 (Local Time) from LGSA Reporting Station
Thunderstorm Thunderstorm  
Wind Chill: 64°   Ceiling: Unl
Heat Index: 64°   Visibility: 6mi
Dew Point: 59°   Wind: 0mph
Humidity: 83%   Direction: NA
Pressure: 29.65"   Gusts: NA
Location:  34.84°N, 24.09°E
Report Text: LGSA 230320Z 00000KT 9999 TS FEW020CB SCT025 18/15 Q1004
Loading
Personal Weather Stations






























Interactive Weather Map
Tropical Storm Tracking
New forecast layout! Learn more

10-Day Weather Forecast

Advertisements
Track Severe Weather on mobile